createdAt,value
2018-09-09T00:02:26.186Z,13.09
2018-09-09T00:05:31.131Z,13.05
2018-09-09T00:08:36.054Z,13.04
2018-09-09T00:11:40.997Z,13.02
2018-09-09T00:14:46.141Z,13.07
2018-09-09T00:17:51.086Z,13.09
2018-09-09T00:20:56.042Z,13.06
2018-09-09T00:24:01.002Z,12.97
2018-09-09T00:27:05.975Z,12.89
2018-09-09T00:30:10.938Z,12.78
2018-09-09T00:33:15.881Z,12.74
2018-09-09T00:36:20.839Z,12.77
2018-09-09T00:39:25.782Z,12.74
2018-09-09T00:42:30.725Z,12.65
2018-09-09T00:45:35.662Z,12.67
2018-09-09T00:48:40.602Z,12.67
2018-09-09T00:51:51.350Z,12.63
2018-09-09T00:54:56.276Z,12.64
2018-09-09T00:58:01.193Z,12.61
2018-09-09T01:01:12.026Z,12.61
2018-09-09T01:04:16.953Z,12.63
2018-09-09T01:07:21.876Z,12.59
2018-09-09T01:10:26.813Z,12.54
2018-09-09T01:13:31.732Z,12.46
2018-09-09T01:16:36.678Z,12.49
2018-09-09T01:19:42.021Z,12.42
2018-09-09T01:22:46.940Z,12.33
2018-09-09T01:25:51.893Z,12.26
2018-09-09T01:28:56.816Z,12.28
2018-09-09T01:32:01.729Z,12.28
2018-09-09T01:35:06.698Z,12.27
2018-09-09T01:38:11.608Z,12.26
2018-09-09T01:41:16.537Z,12.21
2018-09-09T01:44:21.468Z,12.10
2018-09-09T01:47:26.405Z,12.02
2018-09-09T01:50:31.352Z,11.95
2018-09-09T01:53:36.276Z,11.94
2018-09-09T01:56:41.227Z,11.87
2018-09-09T01:59:46.185Z,11.91
2018-09-09T02:02:51.095Z,11.88
2018-09-09T02:05:56.034Z,11.85
2018-09-09T02:09:00.972Z,11.78
2018-09-09T02:12:05.914Z,11.77
2018-09-09T02:15:10.890Z,11.72
2018-09-09T02:18:15.822Z,11.64
2018-09-09T02:21:20.786Z,11.67
2018-09-09T02:24:26.000Z,11.64
2018-09-09T02:27:30.941Z,11.64
2018-09-09T02:30:35.885Z,11.61
2018-09-09T02:33:40.849Z,11.57
2018-09-09T02:36:45.829Z,11.57
2018-09-09T02:39:50.828Z,11.53
2018-09-09T02:42:55.761Z,11.55
2018-09-09T02:46:00.709Z,11.52
2018-09-09T02:49:05.625Z,11.49
2018-09-09T02:52:10.559Z,11.38
2018-09-09T02:55:15.477Z,11.32
2018-09-09T02:58:20.381Z,11.27
2018-09-09T03:01:25.341Z,11.27
2018-09-09T03:04:30.333Z,11.30
2018-09-09T03:07:35.264Z,11.29
2018-09-09T03:10:40.220Z,11.30
2018-09-09T03:13:45.689Z,11.25
2018-09-09T03:16:50.648Z,11.20
2018-09-09T03:19:55.627Z,11.16
2018-09-09T03:23:00.590Z,11.06
2018-09-09T03:26:05.542Z,11.05
2018-09-09T03:29:10.517Z,11.07
2018-09-09T03:32:15.446Z,11.04
2018-09-09T03:35:20.445Z,10.86
2018-09-09T03:38:25.381Z,10.85
2018-09-09T03:41:30.334Z,10.87
2018-09-09T03:44:35.289Z,10.85
2018-09-09T03:47:40.226Z,10.87
2018-09-09T03:50:45.134Z,10.82
2018-09-09T03:53:50.037Z,10.81
2018-09-09T03:56:54.973Z,10.79
2018-09-09T03:59:59.909Z,10.79
2018-09-09T04:03:05.269Z,10.80
2018-09-09T04:06:10.208Z,10.65
2018-09-09T04:09:15.141Z,10.63
2018-09-09T04:12:20.054Z,10.66
2018-09-09T04:15:25.001Z,10.68
2018-09-09T04:18:29.944Z,10.64
2018-09-09T04:21:41.353Z,10.69
2018-09-09T04:24:46.293Z,10.71
2018-09-09T04:27:51.217Z,10.68
2018-09-09T04:30:56.246Z,10.66
2018-09-09T04:34:01.107Z,10.65
2018-09-09T04:37:06.062Z,10.71
2018-09-09T04:40:11.047Z,10.72
2018-09-09T04:43:16.001Z,10.76
2018-09-09T04:46:20.969Z,10.76
2018-09-09T04:49:25.893Z,10.83
2018-09-09T04:52:30.833Z,10.93
2018-09-09T04:55:35.783Z,10.97
2018-09-09T04:58:40.742Z,11.03
2018-09-09T05:01:45.700Z,11.04
2018-09-09T05:04:50.650Z,11.06
2018-09-09T05:07:55.589Z,11.12
2018-09-09T05:11:00.505Z,11.12
2018-09-09T05:14:05.641Z,11.05
2018-09-09T05:17:10.602Z,11.12
2018-09-09T05:20:15.535Z,11.14
2018-09-09T05:23:20.479Z,11.20
2018-09-09T05:26:25.417Z,11.21
2018-09-09T05:29:30.406Z,11.17
2018-09-09T05:32:35.374Z,11.20
2018-09-09T05:35:40.320Z,11.18
2018-09-09T05:38:45.439Z,11.13
2018-09-09T05:41:50.373Z,11.13
2018-09-09T05:44:55.281Z,11.07
2018-09-09T05:48:00.211Z,11.08
2018-09-09T05:51:05.942Z,11.12
2018-09-09T05:54:10.885Z,11.15
2018-09-09T05:57:15.825Z,11.21
2018-09-09T06:00:20.771Z,11.28
2018-09-09T06:03:25.708Z,11.31
2018-09-09T06:06:30.661Z,11.29
2018-09-09T06:09:35.601Z,11.34
2018-09-09T06:12:40.595Z,11.44
2018-09-09T06:15:45.503Z,11.64
2018-09-09T06:18:50.437Z,11.82
2018-09-09T06:21:55.365Z,12.00
2018-09-09T06:25:00.300Z,12.13
2018-09-09T06:28:05.234Z,12.33
2018-09-09T06:31:10.141Z,12.61
2018-09-09T06:34:15.086Z,12.91
2018-09-09T06:37:20.029Z,13.07
2018-09-09T06:40:24.957Z,13.15
2018-09-09T06:43:29.885Z,13.38
2018-09-09T06:46:35.097Z,13.59
2018-09-09T06:49:40.043Z,13.87
2018-09-09T06:52:44.976Z,14.15
2018-09-09T06:55:49.901Z,14.55
2018-09-09T06:58:54.829Z,15.04
2018-09-09T07:01:59.741Z,15.38
2018-09-09T07:05:04.734Z,15.74
2018-09-09T07:08:09.697Z,16.15
2018-09-09T07:11:14.723Z,16.54
2018-09-09T07:14:19.583Z,16.80
2018-09-09T07:17:24.662Z,17.02
2018-09-09T07:20:29.625Z,17.30
2018-09-09T07:23:34.557Z,17.62
2018-09-09T07:26:39.491Z,18.00
2018-09-09T07:29:44.511Z,18.22
2018-09-09T07:32:49.490Z,18.26
2018-09-09T07:35:54.487Z,18.33
2018-09-09T07:38:59.433Z,18.23
2018-09-09T07:42:04.392Z,18.06
2018-09-09T07:45:09.327Z,18.28
2018-09-09T07:48:14.306Z,18.85
2018-09-09T07:51:19.245Z,19.55
2018-09-09T07:54:24.306Z,20.17
2018-09-09T07:57:29.249Z,20.83
2018-09-09T08:00:34.432Z,21.41
2018-09-09T08:03:39.310Z,21.80
2018-09-09T08:06:44.335Z,21.95
2018-09-09T08:09:49.280Z,22.16
2018-09-09T08:12:54.215Z,22.46
2018-09-09T08:15:59.172Z,22.53
2018-09-09T08:19:04.513Z,22.60
2018-09-09T08:22:09.463Z,22.70
2018-09-09T08:25:14.457Z,22.80
2018-09-09T08:28:19.495Z,23.15
2018-09-09T08:31:24.653Z,23.82
2018-09-09T08:34:29.611Z,24.27
2018-09-09T08:37:34.545Z,24.64
2018-09-09T08:40:39.501Z,24.81
2018-09-09T08:43:45.305Z,24.63
2018-09-09T08:46:50.283Z,24.14
2018-09-09T08:49:55.269Z,24.18
2018-09-09T08:53:00.203Z,24.62
2018-09-09T08:56:05.329Z,25.06
2018-09-09T08:59:10.286Z,25.33
2018-09-09T09:02:15.267Z,25.72
2018-09-09T09:05:20.262Z,25.64
2018-09-09T09:08:25.185Z,25.22
2018-09-09T09:11:30.160Z,25.04
2018-09-09T09:14:35.137Z,24.84
2018-09-09T09:17:40.039Z,24.43
2018-09-09T09:20:45.071Z,24.20
2018-09-09T09:23:49.938Z,24.79
2018-09-09T09:26:54.875Z,25.25
2018-09-09T09:29:59.900Z,25.33
2018-09-09T09:33:05.090Z,24.77
2018-09-09T09:36:10.022Z,24.65
2018-09-09T09:39:15.123Z,25.01
2018-09-09T09:42:20.040Z,25.40
2018-09-09T09:45:24.954Z,25.89
2018-09-09T09:48:29.922Z,26.06
2018-09-09T09:51:34.859Z,25.76
2018-09-09T09:54:40.049Z,25.59
2018-09-09T09:57:44.981Z,25.55
2018-09-09T10:00:55.579Z,25.29
2018-09-09T10:04:00.692Z,25.39
2018-09-09T10:07:05.633Z,25.34
2018-09-09T10:10:10.541Z,25.12
2018-09-09T10:13:15.573Z,25.47
2018-09-09T10:16:20.497Z,25.98
2018-09-09T10:19:25.491Z,26.42
2018-09-09T10:22:30.385Z,26.35
2018-09-09T10:25:35.305Z,26.35
2018-09-09T10:28:40.236Z,25.91
2018-09-09T10:31:45.193Z,26.23
2018-09-09T10:34:50.189Z,26.45
2018-09-09T10:37:55.112Z,26.58
2018-09-09T10:41:00.073Z,26.92
2018-09-09T10:44:05.002Z,27.16
2018-09-09T10:47:09.986Z,27.06
2018-09-09T10:50:14.865Z,26.72
2018-09-09T10:53:19.812Z,26.46
2018-09-09T10:56:24.785Z,26.18
2018-09-09T10:59:29.708Z,26.10
2018-09-09T11:02:34.666Z,26.23
2018-09-09T11:05:39.915Z,26.54
2018-09-09T11:08:44.856Z,27.08
2018-09-09T11:11:49.820Z,27.71
2018-09-09T11:14:54.769Z,28.15
2018-09-09T11:17:59.693Z,28.77
2018-09-09T11:21:04.756Z,28.60
2018-09-09T11:24:09.769Z,27.54
2018-09-09T11:27:14.697Z,26.81
2018-09-09T11:30:19.641Z,26.70
2018-09-09T11:33:24.613Z,26.97
2018-09-09T11:36:29.591Z,27.66
2018-09-09T11:39:34.541Z,28.26
2018-09-09T11:42:39.521Z,28.08
2018-09-09T11:45:44.458Z,27.98
2018-09-09T11:48:49.440Z,27.94
2018-09-09T11:51:54.401Z,27.58
2018-09-09T11:54:59.338Z,27.66
2018-09-09T11:58:04.465Z,27.93
2018-09-09T12:01:09.410Z,28.19
2018-09-09T12:04:14.342Z,27.78
2018-09-09T12:07:19.439Z,27.41
2018-09-09T12:10:24.387Z,27.26
2018-09-09T12:13:29.343Z,26.55
2018-09-09T12:16:34.305Z,26.81
2018-09-09T12:19:39.257Z,26.97
2018-09-09T12:22:44.321Z,27.01
2018-09-09T12:25:49.259Z,27.01
2018-09-09T12:28:54.403Z,27.05
2018-09-09T12:31:59.409Z,27.09
2018-09-09T12:35:04.583Z,27.15
2018-09-09T12:38:09.537Z,27.30
2018-09-09T12:41:14.505Z,26.84
2018-09-09T12:44:25.417Z,26.40
2018-09-09T12:47:36.012Z,25.68
2018-09-09T12:50:40.974Z,25.41
2018-09-09T12:53:45.934Z,25.44
2018-09-09T12:56:50.939Z,25.46
2018-09-09T12:59:55.957Z,25.47
2018-09-09T13:03:00.902Z,25.55
2018-09-09T13:06:05.881Z,25.50
2018-09-09T13:09:10.832Z,25.59
2018-09-09T13:12:15.773Z,25.48
2018-09-09T13:15:20.713Z,25.53
2018-09-09T13:18:25.676Z,25.53
2018-09-09T13:21:30.739Z,25.69
2018-09-09T13:24:35.664Z,25.73
2018-09-09T13:27:40.641Z,25.52
2018-09-09T13:30:45.586Z,25.45
2018-09-09T13:33:50.542Z,25.44
2018-09-09T13:36:55.593Z,25.77
2018-09-09T13:40:00.549Z,26.09
2018-09-09T13:43:05.585Z,26.28
2018-09-09T13:46:10.645Z,26.16
2018-09-09T13:49:15.613Z,26.23
2018-09-09T13:52:20.852Z,26.28
2018-09-09T13:55:25.835Z,26.29
2018-09-09T13:58:30.765Z,26.54
2018-09-09T14:01:35.674Z,26.84
2018-09-09T14:04:40.619Z,26.95
2018-09-09T14:07:45.537Z,26.80
2018-09-09T14:10:50.503Z,26.66
2018-09-09T14:13:55.482Z,26.64
2018-09-09T14:17:00.405Z,26.74
2018-09-09T14:20:05.345Z,26.66
2018-09-09T14:23:10.285Z,26.71
2018-09-09T14:26:15.193Z,26.74
2018-09-09T14:29:20.196Z,26.77
2018-09-09T14:32:25.105Z,26.91
2018-09-09T14:35:30.025Z,27.04
2018-09-09T14:38:34.978Z,27.10
2018-09-09T14:41:39.933Z,27.14
2018-09-09T14:44:44.860Z,27.16
2018-09-09T14:47:49.816Z,27.04
2018-09-09T14:50:54.749Z,27.02
2018-09-09T14:53:59.685Z,27.02
2018-09-09T14:57:04.674Z,27.03
2018-09-09T15:00:12.265Z,27.02
2018-09-09T15:03:17.213Z,27.05
2018-09-09T15:06:22.205Z,27.11
2018-09-09T15:09:27.189Z,26.94
2018-09-09T15:12:32.223Z,26.94
2018-09-09T15:15:37.208Z,26.79
2018-09-09T15:18:42.177Z,26.81
2018-09-09T15:21:47.113Z,26.77
2018-09-09T15:24:52.083Z,26.58
2018-09-09T15:27:57.071Z,26.43
2018-09-09T15:31:02.044Z,26.49
2018-09-09T15:34:07.018Z,26.69
2018-09-09T15:37:11.976Z,26.62
2018-09-09T15:40:16.941Z,26.58
2018-09-09T15:43:21.976Z,26.56
2018-09-09T15:46:26.986Z,26.55
2018-09-09T15:49:31.967Z,26.52
2018-09-09T15:52:37.039Z,26.40
2018-09-09T15:55:42.011Z,26.42
2018-09-09T15:58:47.709Z,26.28
2018-09-09T16:01:52.679Z,26.26
2018-09-09T16:04:57.654Z,26.14
2018-09-09T16:08:02.625Z,26.14
2018-09-09T16:11:07.643Z,26.08
2018-09-09T16:14:12.618Z,26.02
2018-09-09T16:17:17.561Z,25.82
2018-09-09T16:20:22.529Z,25.92
2018-09-09T16:23:27.543Z,25.89
2018-09-09T16:26:32.462Z,25.80
2018-09-09T16:29:37.413Z,25.73
2018-09-09T16:32:42.382Z,25.70
2018-09-09T16:35:47.399Z,25.60
2018-09-09T16:38:52.438Z,25.54
2018-09-09T16:41:58.109Z,25.55
2018-09-09T16:45:03.194Z,25.56
2018-09-09T16:48:08.198Z,25.46
2018-09-09T16:51:14.085Z,25.36
2018-09-09T16:54:19.082Z,25.20
2018-09-09T16:57:24.063Z,25.09
2018-09-09T17:00:29.015Z,25.07
2018-09-09T17:03:33.990Z,25.09
2018-09-09T17:06:39.017Z,25.32
2018-09-09T17:09:44.009Z,25.07
2018-09-09T17:12:49.046Z,24.93
2018-09-09T17:15:54.043Z,24.71
2018-09-09T17:18:58.998Z,24.32
2018-09-09T17:22:04.007Z,24.17
2018-09-09T17:25:09.000Z,24.07
2018-09-09T17:28:13.951Z,23.94
2018-09-09T17:31:18.966Z,23.80
2018-09-09T17:34:23.962Z,23.60
2018-09-09T17:37:28.915Z,23.45
2018-09-09T17:40:33.923Z,23.24
2018-09-09T17:43:39.131Z,23.05
2018-09-09T17:46:44.132Z,22.86
2018-09-09T17:49:49.173Z,22.73
2018-09-09T17:52:54.398Z,22.59
2018-09-09T17:55:59.591Z,22.47
2018-09-09T17:59:04.585Z,22.33
2018-09-09T18:02:09.580Z,22.20
2018-09-09T18:05:14.533Z,21.96
2018-09-09T18:08:19.562Z,21.75
2018-09-09T18:11:24.583Z,21.49
2018-09-09T18:14:29.553Z,21.35
2018-09-09T18:17:34.620Z,21.14
2018-09-09T18:20:39.499Z,21.03
2018-09-09T18:23:44.428Z,20.91
2018-09-09T18:26:49.385Z,20.78
2018-09-09T18:29:54.624Z,20.62
2018-09-09T18:32:59.710Z,20.37
2018-09-09T18:36:04.793Z,20.12
2018-09-09T18:39:10.470Z,20.01
2018-09-09T18:42:15.284Z,19.89
2018-09-09T18:45:20.501Z,19.86
2018-09-09T18:48:25.498Z,19.73
2018-09-09T18:51:30.495Z,19.63
2018-09-09T18:54:35.421Z,19.53
2018-09-09T18:57:40.969Z,19.41
2018-09-09T19:00:46.009Z,19.23
2018-09-09T19:03:50.962Z,19.13
2018-09-09T19:06:55.966Z,19.03
2018-09-09T19:10:01.026Z,18.91
2018-09-09T19:13:06.214Z,18.78
2018-09-09T19:16:11.710Z,18.65
2018-09-09T19:19:16.794Z,18.53
2018-09-09T19:22:21.821Z,18.44
2018-09-09T19:25:26.954Z,18.36
2018-09-09T19:28:32.002Z,18.24
2018-09-09T19:31:37.449Z,18.14
2018-09-09T19:34:42.857Z,18.00
2018-09-09T19:37:47.833Z,17.92
2018-09-09T19:40:53.236Z,17.84
2018-09-09T19:43:58.233Z,17.68
2018-09-09T19:47:04.249Z,17.46
2018-09-09T19:50:09.211Z,17.30
2018-09-09T19:53:14.192Z,17.04
2018-09-09T19:56:19.140Z,16.91
2018-09-09T19:59:24.091Z,16.88
2018-09-09T20:02:29.174Z,16.69
2018-09-09T20:05:34.086Z,16.33
2018-09-09T20:08:39.060Z,16.28
2018-09-09T20:11:44.014Z,16.33
2018-09-09T20:14:48.955Z,16.37
2018-09-09T20:17:53.882Z,16.37
2018-09-09T20:20:58.809Z,16.37
2018-09-09T20:24:03.771Z,16.30
2018-09-09T20:27:08.714Z,16.00
2018-09-09T20:30:13.628Z,15.87
2018-09-09T20:33:18.561Z,15.86
2018-09-09T20:36:23.485Z,15.82
2018-09-09T20:39:28.437Z,15.69
2018-09-09T20:42:33.376Z,15.65
2018-09-09T20:45:38.317Z,15.66
2018-09-09T20:48:43.245Z,15.50
2018-09-09T20:51:48.161Z,15.40
2018-09-09T20:54:53.093Z,15.36
2018-09-09T20:57:58.017Z,15.35
2018-09-09T21:01:02.957Z,15.21
2018-09-09T21:04:07.862Z,15.10
2018-09-09T21:07:12.789Z,15.09
2018-09-09T21:10:17.772Z,15.09
2018-09-09T21:13:22.741Z,15.08
2018-09-09T21:16:27.692Z,15.05
2018-09-09T21:19:32.609Z,15.00
2018-09-09T21:22:37.541Z,15.01
2018-09-09T21:25:42.463Z,14.83
2018-09-09T21:28:47.401Z,14.67
2018-09-09T21:31:52.330Z,14.50
2018-09-09T21:34:57.301Z,14.43
2018-09-09T21:38:02.241Z,14.46
2018-09-09T21:41:07.157Z,14.48
2018-09-09T21:44:12.101Z,14.47
2018-09-09T21:47:17.010Z,14.42
2018-09-09T21:50:21.965Z,14.36
2018-09-09T21:53:26.912Z,14.20
2018-09-09T21:56:31.841Z,14.18
2018-09-09T22:03:17.629Z,14.17
2018-09-09T22:06:22.554Z,14.15
2018-09-09T22:09:27.507Z,14.14
2018-09-09T22:12:32.430Z,13.99
2018-09-09T22:15:37.401Z,13.56
2018-09-09T22:18:42.366Z,13.42
2018-09-09T22:21:48.557Z,13.48
2018-09-09T22:24:53.488Z,13.53
2018-09-09T22:27:58.389Z,13.48
2018-09-09T22:31:03.419Z,13.48
2018-09-09T22:34:08.353Z,13.47
2018-09-09T22:37:13.252Z,13.47
2018-09-09T22:40:18.205Z,13.49
2018-09-09T22:43:23.149Z,13.47
2018-09-09T22:46:28.103Z,13.49
2018-09-09T22:49:33.039Z,13.40
2018-09-09T22:52:37.984Z,13.24
2018-09-09T22:55:42.944Z,13.24
2018-09-09T22:58:47.882Z,13.24
2018-09-09T23:01:52.828Z,13.22
2018-09-09T23:04:57.756Z,13.14
2018-09-09T23:08:02.685Z,13.14
2018-09-09T23:11:07.636Z,13.04
2018-09-09T23:14:12.561Z,12.87
2018-09-09T23:17:17.589Z,12.85
2018-09-09T23:20:22.735Z,12.85
2018-09-09T23:23:27.660Z,12.85
2018-09-09T23:26:32.565Z,12.88
2018-09-09T23:29:37.475Z,12.87
2018-09-09T23:32:42.426Z,12.82
2018-09-09T23:35:47.355Z,12.83
2018-09-09T23:38:52.285Z,12.78
2018-09-09T23:41:57.233Z,12.71
2018-09-09T23:45:02.181Z,12.55
2018-09-09T23:48:07.324Z,12.47
2018-09-09T23:51:12.273Z,12.42
2018-09-09T23:54:17.218Z,12.46
2018-09-09T23:57:22.161Z,12.48
